sensor_id;sensor_type;location;lat;lon;timestamp;P1;durP1;ratioP1;P2;durP2;ratioP2
52440;SDS011;39611;46.062;8.950;2022-12-07T00:01:46;0.70;;;0.43;;
52440;SDS011;39611;46.062;8.950;2022-12-07T00:04:48;2.10;;;0.85;;
52440;SDS011;39611;46.062;8.950;2022-12-07T00:08:03;2.63;;;0.60;;
52440;SDS011;39611;46.062;8.950;2022-12-07T00:11:29;0.68;;;0.32;;
52440;SDS011;39611;46.062;8.950;2022-12-07T00:18:21;0.90;;;0.40;;
52440;SDS011;39611;46.062;8.950;2022-12-07T00:21:26;0.73;;;0.30;;
52440;SDS011;39611;46.062;8.950;2022-12-07T00:24:37;0.80;;;0.55;;
52440;SDS011;39611;46.062;8.950;2022-12-07T00:27:38;1.08;;;0.15;;
52440;SDS011;39611;46.062;8.950;2022-12-07T00:30:43;0.60;;;0.20;;
52440;SDS011;39611;46.062;8.950;2022-12-07T00:34:10;0.45;;;0.20;;
52440;SDS011;39611;46.062;8.950;2022-12-07T00:37:36;1.30;;;0.20;;
52440;SDS011;39611;46.062;8.950;2022-12-07T00:52:21;0.40;;;0.40;;
52440;SDS011;39611;46.062;8.950;2022-12-07T00:55:32;2.20;;;0.77;;
52440;SDS011;39611;46.062;8.950;2022-12-07T01:02:02;0.93;;;0.40;;
52440;SDS011;39611;46.062;8.950;2022-12-07T01:12:08;0.40;;;0.40;;
52440;SDS011;39611;46.062;8.950;2022-12-07T01:15:35;0.65;;;0.30;;
52440;SDS011;39611;46.062;8.950;2022-12-07T01:19:00;0.05;;;0.05;;
52440;SDS011;39611;46.062;8.950;2022-12-07T01:22:40;1.73;;;0.28;;
52440;SDS011;39611;46.062;8.950;2022-12-07T01:29:23;2.60;;;1.02;;
52440;SDS011;39611;46.062;8.950;2022-12-07T01:32:32;1.10;;;0.50;;
52440;SDS011;39611;46.062;8.950;2022-12-07T01:36:32;0.47;;;0.43;;
52440;SDS011;39611;46.062;8.950;2022-12-07T02:01:20;2.33;;;0.30;;
52440;SDS011;39611;46.062;8.950;2022-12-07T02:04:31;0.85;;;0.50;;
52440;SDS011;39611;46.062;8.950;2022-12-07T02:07:48;0.68;;;0.45;;
52440;SDS011;39611;46.062;8.950;2022-12-07T02:10:57;1.65;;;0.30;;
52440;SDS011;39611;46.062;8.950;2022-12-07T02:17:38;1.67;;;0.38;;
52440;SDS011;39611;46.062;8.950;2022-12-07T02:27:46;0.25;;;0.13;;
52440;SDS011;39611;46.062;8.950;2022-12-07T02:37:55;0.20;;;0.20;;
52440;SDS011;39611;46.062;8.950;2022-12-07T02:42:17;0.68;;;0.30;;
52440;SDS011;39611;46.062;8.950;2022-12-07T02:45:44;0.20;;;0.10;;
52440;SDS011;39611;46.062;8.950;2022-12-07T02:48:41;0.20;;;0.10;;
52440;SDS011;39611;46.062;8.950;2022-12-07T02:54:44;1.27;;;0.43;;
52440;SDS011;39611;46.062;8.950;2022-12-07T02:57:46;2.88;;;0.30;;
52440;SDS011;39611;46.062;8.950;2022-12-07T03:11:42;0.68;;;0.10;;
52440;SDS011;39611;46.062;8.950;2022-12-07T03:18:15;0.85;;;0.10;;
52440;SDS011;39611;46.062;8.950;2022-12-07T03:21:36;0.50;;;0.15;;
52440;SDS011;39611;46.062;8.950;2022-12-07T03:24:33;0.32;;;0.10;;
52440;SDS011;39611;46.062;8.950;2022-12-07T03:41:12;0.00;;;0.00;;
52440;SDS011;39611;46.062;8.950;2022-12-07T03:44:14;1.05;;;0.30;;
52440;SDS011;39611;46.062;8.950;2022-12-07T03:51:33;1.08;;;0.25;;
52440;SDS011;39611;46.062;8.950;2022-12-07T03:59:38;0.57;;;0.20;;
52440;SDS011;39611;46.062;8.950;2022-12-07T04:03:05;0.00;;;0.00;;
52440;SDS011;39611;46.062;8.950;2022-12-07T04:06:04;1.33;;;0.17;;
52440;SDS011;39611;46.062;8.950;2022-12-07T04:09:29;0.32;;;0.25;;
52440;SDS011;39611;46.062;8.950;2022-12-07T04:12:46;0.55;;;0.15;;
52440;SDS011;39611;46.062;8.950;2022-12-07T04:15:45;0.98;;;0.43;;
52440;SDS011;39611;46.062;8.950;2022-12-07T04:19:10;0.20;;;0.10;;
52440;SDS011;39611;46.062;8.950;2022-12-07T04:21:59;0.55;;;0.40;;
52440;SDS011;39611;46.062;8.950;2022-12-07T04:25:08;0.63;;;0.20;;
52440;SDS011;39611;46.062;8.950;2022-12-07T04:28:17;1.23;;;0.25;;
52440;SDS011;39611;46.062;8.950;2022-12-07T04:31:23;0.20;;;0.20;;
52440;SDS011;39611;46.062;8.950;2022-12-07T04:34:12;0.50;;;0.45;;
52440;SDS011;39611;46.062;8.950;2022-12-07T04:40:46;0.15;;;0.10;;
52440;SDS011;39611;46.062;8.950;2022-12-07T04:47:34;1.95;;;0.20;;
52440;SDS011;39611;46.062;8.950;2022-12-07T04:54:10;0.15;;;0.00;;
52440;SDS011;39611;46.062;8.950;2022-12-07T05:04:57;0.28;;;0.28;;
52440;SDS011;39611;46.062;8.950;2022-12-07T05:15:22;0.10;;;0.03;;
52440;SDS011;39611;46.062;8.950;2022-12-07T05:18:28;0.77;;;0.15;;
52440;SDS011;39611;46.062;8.950;2022-12-07T05:22:05;2.67;;;0.60;;
52440;SDS011;39611;46.062;8.950;2022-12-07T05:28:49;1.83;;;0.70;;
52440;SDS011;39611;46.062;8.950;2022-12-07T05:32:10;3.63;;;1.10;;
52440;SDS011;39611;46.062;8.950;2022-12-07T05:49:59;3.67;;;1.17;;
52440;SDS011;39611;46.062;8.950;2022-12-07T05:59:39;1.70;;;1.23;;
52440;SDS011;39611;46.062;8.950;2022-12-07T06:02:12;1.05;;;0.70;;
52440;SDS011;39611;46.062;8.950;2022-12-07T06:04:57;1.83;;;0.52;;
52440;SDS011;39611;46.062;8.950;2022-12-07T06:07:24;3.17;;;0.65;;
52440;SDS011;39611;46.062;8.950;2022-12-07T06:13:36;1.80;;;0.60;;
52440;SDS011;39611;46.062;8.950;2022-12-07T06:16:41;3.15;;;0.98;;
52440;SDS011;39611;46.062;8.950;2022-12-07T06:20:05;2.80;;;0.55;;
52440;SDS011;39611;46.062;8.950;2022-12-07T06:22:35;2.38;;;1.42;;
52440;SDS011;39611;46.062;8.950;2022-12-07T06:25:45;2.22;;;1.08;;
52440;SDS011;39611;46.062;8.950;2022-12-07T06:28:35;1.10;;;0.28;;
52440;SDS011;39611;46.062;8.950;2022-12-07T06:42:42;1.70;;;0.63;;
52440;SDS011;39611;46.062;8.950;2022-12-07T06:52:29;4.32;;;1.70;;
52440;SDS011;39611;46.062;8.950;2022-12-07T06:59:49;4.32;;;0.93;;
52440;SDS011;39611;46.062;8.950;2022-12-07T07:20:50;3.95;;;1.88;;
52440;SDS011;39611;46.062;8.950;2022-12-07T07:23:20;6.55;;;2.70;;
52440;SDS011;39611;46.062;8.950;2022-12-07T07:25:47;4.70;;;2.78;;
52440;SDS011;39611;46.062;8.950;2022-12-07T07:28:23;8.57;;;2.70;;
52440;SDS011;39611;46.062;8.950;2022-12-07T07:30:49;6.63;;;1.42;;
52440;SDS011;39611;46.062;8.950;2022-12-07T07:33:16;7.90;;;2.05;;
52440;SDS011;39611;46.062;8.950;2022-12-07T07:35:42;2.78;;;1.08;;
52440;SDS011;39611;46.062;8.950;2022-12-07T07:38:09;2.22;;;0.90;;
52440;SDS011;39611;46.062;8.950;2022-12-07T07:40:36;3.30;;;1.77;;
52440;SDS011;39611;46.062;8.950;2022-12-07T07:43:04;5.40;;;2.45;;
52440;SDS011;39611;46.062;8.950;2022-12-07T07:45:30;9.57;;;3.40;;
52440;SDS011;39611;46.062;8.950;2022-12-07T07:47:57;15.65;;;5.03;;
52440;SDS011;39611;46.062;8.950;2022-12-07T07:50:23;4.13;;;1.58;;
52440;SDS011;39611;46.062;8.950;2022-12-07T07:52:50;7.90;;;2.35;;
52440;SDS011;39611;46.062;8.950;2022-12-07T07:55:18;6.57;;;2.05;;
52440;SDS011;39611;46.062;8.950;2022-12-07T07:57:44;3.88;;;1.98;;
52440;SDS011;39611;46.062;8.950;2022-12-07T08:00:19;4.20;;;1.95;;
52440;SDS011;39611;46.062;8.950;2022-12-07T08:02:46;7.20;;;1.95;;
52440;SDS011;39611;46.062;8.950;2022-12-07T08:05:13;8.82;;;2.38;;
52440;SDS011;39611;46.062;8.950;2022-12-07T08:07:40;5.93;;;2.38;;
52440;SDS011;39611;46.062;8.950;2022-12-07T08:10:07;6.97;;;2.58;;
52440;SDS011;39611;46.062;8.950;2022-12-07T08:12:37;5.80;;;2.00;;
52440;SDS011;39611;46.062;8.950;2022-12-07T08:15:25;9.40;;;2.95;;
52440;SDS011;39611;46.062;8.950;2022-12-07T08:17:55;5.65;;;3.03;;
52440;SDS011;39611;46.062;8.950;2022-12-07T08:20:25;7.95;;;2.08;;
52440;SDS011;39611;46.062;8.950;2022-12-07T08:22:52;4.18;;;1.85;;
52440;SDS011;39611;46.062;8.950;2022-12-07T08:25:19;3.08;;;1.90;;
52440;SDS011;39611;46.062;8.950;2022-12-07T08:27:46;10.65;;;3.13;;
52440;SDS011;39611;46.062;8.950;2022-12-07T08:30:13;5.10;;;1.52;;
52440;SDS011;39611;46.062;8.950;2022-12-07T08:32:40;2.05;;;0.73;;
52440;SDS011;39611;46.062;8.950;2022-12-07T08:35:06;4.53;;;0.63;;
52440;SDS011;39611;46.062;8.950;2022-12-07T08:37:34;2.00;;;0.98;;
52440;SDS011;39611;46.062;8.950;2022-12-07T08:40:01;2.58;;;1.40;;
52440;SDS011;39611;46.062;8.950;2022-12-07T08:42:30;3.22;;;1.23;;
52440;SDS011;39611;46.062;8.950;2022-12-07T08:45:05;2.38;;;1.30;;
52440;SDS011;39611;46.062;8.950;2022-12-07T08:47:37;2.55;;;1.05;;
52440;SDS011;39611;46.062;8.950;2022-12-07T08:50:08;1.45;;;0.77;;
52440;SDS011;39611;46.062;8.950;2022-12-07T08:52:36;1.67;;;0.60;;
52440;SDS011;39611;46.062;8.950;2022-12-07T08:55:03;1.83;;;0.70;;
52440;SDS011;39611;46.062;8.950;2022-12-07T08:57:32;1.27;;;0.40;;
52440;SDS011;39611;46.062;8.950;2022-12-07T09:00:00;1.58;;;0.50;;
52440;SDS011;39611;46.062;8.950;2022-12-07T09:02:28;1.98;;;0.50;;
52440;SDS011;39611;46.062;8.950;2022-12-07T09:04:54;1.45;;;0.47;;
52440;SDS011;39611;46.062;8.950;2022-12-07T09:07:21;0.57;;;0.32;;
52440;SDS011;39611;46.062;8.950;2022-12-07T09:09:47;1.20;;;0.68;;
52440;SDS011;39611;46.062;8.950;2022-12-07T09:12:14;10.35;;;0.90;;
52440;SDS011;39611;46.062;8.950;2022-12-07T09:14:40;2.25;;;0.88;;
52440;SDS011;39611;46.062;8.950;2022-12-07T09:17:08;1.20;;;0.60;;
52440;SDS011;39611;46.062;8.950;2022-12-07T09:19:36;1.25;;;0.63;;
52440;SDS011;39611;46.062;8.950;2022-12-07T09:22:03;1.42;;;0.40;;
52440;SDS011;39611;46.062;8.950;2022-12-07T09:24:31;2.75;;;0.40;;
52440;SDS011;39611;46.062;8.950;2022-12-07T09:26:58;0.40;;;0.30;;
52440;SDS011;39611;46.062;8.950;2022-12-07T09:29:24;0.88;;;0.40;;
52440;SDS011;39611;46.062;8.950;2022-12-07T09:31:52;0.70;;;0.40;;
52440;SDS011;39611;46.062;8.950;2022-12-07T09:34:18;0.25;;;0.15;;
52440;SDS011;39611;46.062;8.950;2022-12-07T09:36:46;0.45;;;0.10;;
52440;SDS011;39611;46.062;8.950;2022-12-07T09:39:13;0.98;;;0.70;;
52440;SDS011;39611;46.062;8.950;2022-12-07T09:41:39;0.45;;;0.10;;
52440;SDS011;39611;46.062;8.950;2022-12-07T09:44:12;0.85;;;0.55;;
52440;SDS011;39611;46.062;8.950;2022-12-07T09:46:42;3.60;;;0.33;;
52440;SDS011;39611;46.062;8.950;2022-12-07T09:49:12;1.15;;;0.40;;
52440;SDS011;39611;46.062;8.950;2022-12-07T09:54:14;0.47;;;0.20;;
52440;SDS011;39611;46.062;8.950;2022-12-07T09:56:43;4.10;;;0.63;;
52440;SDS011;39611;46.062;8.950;2022-12-07T09:59:12;1.35;;;0.80;;
52440;SDS011;39611;46.062;8.950;2022-12-07T10:01:44;2.53;;;0.85;;
52440;SDS011;39611;46.062;8.950;2022-12-07T10:04:24;3.22;;;0.55;;
52440;SDS011;39611;46.062;8.950;2022-12-07T10:06:53;2.42;;;0.70;;
52440;SDS011;39611;46.062;8.950;2022-12-07T10:09:20;1.60;;;0.70;;
52440;SDS011;39611;46.062;8.950;2022-12-07T10:12:01;0.75;;;0.32;;
52440;SDS011;39611;46.062;8.950;2022-12-07T10:14:36;1.40;;;0.50;;
52440;SDS011;39611;46.062;8.950;2022-12-07T10:17:38;3.00;;;0.80;;
52440;SDS011;39611;46.062;8.950;2022-12-07T10:25:28;4.40;;;1.05;;
52440;SDS011;39611;46.062;8.950;2022-12-07T10:28:00;3.28;;;0.68;;
52440;SDS011;39611;46.062;8.950;2022-12-07T10:36:01;0.75;;;0.20;;
52440;SDS011;39611;46.062;8.950;2022-12-07T10:38:44;0.47;;;0.25;;
52440;SDS011;39611;46.062;8.950;2022-12-07T10:41:16;0.55;;;0.15;;
52440;SDS011;39611;46.062;8.950;2022-12-07T10:43:50;0.45;;;0.20;;
52440;SDS011;39611;46.062;8.950;2022-12-07T10:49:49;0.73;;;0.30;;
52440;SDS011;39611;46.062;8.950;2022-12-07T10:52:50;1.05;;;0.50;;
52440;SDS011;39611;46.062;8.950;2022-12-07T10:55:46;0.93;;;0.28;;
52440;SDS011;39611;46.062;8.950;2022-12-07T11:55:41;1.00;;;0.60;;
52440;SDS011;39611;46.062;8.950;2022-12-07T12:03:46;0.75;;;0.47;;
52440;SDS011;39611;46.062;8.950;2022-12-07T12:06:18;1.02;;;0.40;;
52440;SDS011;39611;46.062;8.950;2022-12-07T12:08:47;0.88;;;0.40;;
52440;SDS011;39611;46.062;8.950;2022-12-07T12:18:00;1.85;;;0.50;;
52440;SDS011;39611;46.062;8.950;2022-12-07T12:20:54;0.60;;;0.20;;
52440;SDS011;39611;46.062;8.950;2022-12-07T12:23:43;0.45;;;0.30;;
52440;SDS011;39611;46.062;8.950;2022-12-07T12:26:33;1.02;;;0.40;;
52440;SDS011;39611;46.062;8.950;2022-12-07T12:29:50;1.13;;;0.77;;
52440;SDS011;39611;46.062;8.950;2022-12-07T12:32:07;0.75;;;0.47;;
52440;SDS011;39611;46.062;8.950;2022-12-07T12:42:49;0.93;;;0.40;;
52440;SDS011;39611;46.062;8.950;2022-12-07T12:45:19;1.40;;;0.60;;
52440;SDS011;39611;46.062;8.950;2022-12-07T12:50:36;0.70;;;0.35;;
52440;SDS011;39611;46.062;8.950;2022-12-07T12:57:09;1.02;;;0.50;;
52440;SDS011;39611;46.062;8.950;2022-12-07T12:59:42;1.65;;;0.20;;
52440;SDS011;39611;46.062;8.950;2022-12-07T13:04:54;1.27;;;0.70;;
52440;SDS011;39611;46.062;8.950;2022-12-07T13:27:57;0.85;;;0.32;;
52440;SDS011;39611;46.062;8.950;2022-12-07T13:30:28;0.75;;;0.20;;
52440;SDS011;39611;46.062;8.950;2022-12-07T13:32:56;1.80;;;0.30;;
52440;SDS011;39611;46.062;8.950;2022-12-07T13:35:30;0.77;;;0.40;;
52440;SDS011;39611;46.062;8.950;2022-12-07T13:38:02;0.43;;;0.20;;
52440;SDS011;39611;46.062;8.950;2022-12-07T13:40:32;2.00;;;0.65;;
52440;SDS011;39611;46.062;8.950;2022-12-07T13:43:02;1.30;;;0.40;;
52440;SDS011;39611;46.062;8.950;2022-12-07T13:45:31;0.98;;;0.60;;
52440;SDS011;39611;46.062;8.950;2022-12-07T13:48:16;2.50;;;0.60;;
52440;SDS011;39611;46.062;8.950;2022-12-07T13:50:52;2.78;;;1.00;;
52440;SDS011;39611;46.062;8.950;2022-12-07T13:53:23;2.97;;;0.65;;
52440;SDS011;39611;46.062;8.950;2022-12-07T13:55:50;1.70;;;0.30;;
52440;SDS011;39611;46.062;8.950;2022-12-07T13:58:20;1.90;;;0.65;;
52440;SDS011;39611;46.062;8.950;2022-12-07T14:00:47;0.30;;;0.20;;
52440;SDS011;39611;46.062;8.950;2022-12-07T14:05:41;0.82;;;0.28;;
52440;SDS011;39611;46.062;8.950;2022-12-07T14:10:40;0.60;;;0.40;;
52440;SDS011;39611;46.062;8.950;2022-12-07T14:15:56;1.23;;;0.30;;
52440;SDS011;39611;46.062;8.950;2022-12-07T14:18:58;9.18;;;0.65;;
52440;SDS011;39611;46.062;8.950;2022-12-07T14:21:18;1.63;;;0.50;;
52440;SDS011;39611;46.062;8.950;2022-12-07T14:26:49;2.55;;;0.75;;
52440;SDS011;39611;46.062;8.950;2022-12-07T14:29:20;1.08;;;0.32;;
52440;SDS011;39611;46.062;8.950;2022-12-07T14:31:47;0.88;;;0.47;;
52440;SDS011;39611;46.062;8.950;2022-12-07T14:34:14;1.08;;;0.40;;
52440;SDS011;39611;46.062;8.950;2022-12-07T14:36:41;0.98;;;0.50;;
52440;SDS011;39611;46.062;8.950;2022-12-07T14:39:07;0.70;;;0.40;;
52440;SDS011;39611;46.062;8.950;2022-12-07T14:41:38;0.70;;;0.38;;
52440;SDS011;39611;46.062;8.950;2022-12-07T14:44:21;0.68;;;0.47;;
52440;SDS011;39611;46.062;8.950;2022-12-07T14:46:53;0.85;;;0.38;;
52440;SDS011;39611;46.062;8.950;2022-12-07T14:49:40;1.35;;;0.45;;
52440;SDS011;39611;46.062;8.950;2022-12-07T14:52:11;1.23;;;0.47;;
52440;SDS011;39611;46.062;8.950;2022-12-07T14:55:13;5.68;;;0.70;;
52440;SDS011;39611;46.062;8.950;2022-12-07T14:57:44;4.32;;;0.50;;
52440;SDS011;39611;46.062;8.950;2022-12-07T15:00:25;7.68;;;0.82;;
52440;SDS011;39611;46.062;8.950;2022-12-07T15:02:53;0.82;;;0.47;;
52440;SDS011;39611;46.062;8.950;2022-12-07T15:05:21;1.45;;;0.50;;
52440;SDS011;39611;46.062;8.950;2022-12-07T15:07:48;3.17;;;0.50;;
52440;SDS011;39611;46.062;8.950;2022-12-07T15:12:49;3.40;;;0.60;;
52440;SDS011;39611;46.062;8.950;2022-12-07T15:15:15;1.95;;;0.60;;
52440;SDS011;39611;46.062;8.950;2022-12-07T15:17:43;1.45;;;0.73;;
52440;SDS011;39611;46.062;8.950;2022-12-07T15:20:11;0.60;;;0.40;;
52440;SDS011;39611;46.062;8.950;2022-12-07T15:22:39;3.38;;;0.60;;
52440;SDS011;39611;46.062;8.950;2022-12-07T15:25:06;0.88;;;0.35;;
52440;SDS011;39611;46.062;8.950;2022-12-07T15:27:33;1.35;;;0.47;;
52440;SDS011;39611;46.062;8.950;2022-12-07T15:30:00;0.90;;;0.40;;
52440;SDS011;39611;46.062;8.950;2022-12-07T15:32:26;0.85;;;0.28;;
52440;SDS011;39611;46.062;8.950;2022-12-07T15:34:58;0.82;;;0.38;;
52440;SDS011;39611;46.062;8.950;2022-12-07T15:37:25;1.02;;;0.47;;
52440;SDS011;39611;46.062;8.950;2022-12-07T15:39:51;0.65;;;0.25;;
52440;SDS011;39611;46.062;8.950;2022-12-07T15:42:18;3.90;;;0.57;;
52440;SDS011;39611;46.062;8.950;2022-12-07T15:44:44;1.13;;;0.70;;
52440;SDS011;39611;46.062;8.950;2022-12-07T15:50:22;2.53;;;0.70;;
52440;SDS011;39611;46.062;8.950;2022-12-07T15:52:48;1.67;;;0.90;;
52440;SDS011;39611;46.062;8.950;2022-12-07T15:55:15;2.90;;;1.00;;
52440;SDS011;39611;46.062;8.950;2022-12-07T15:57:42;1.55;;;0.70;;
52440;SDS011;39611;46.062;8.950;2022-12-07T16:00:08;0.95;;;0.60;;
52440;SDS011;39611;46.062;8.950;2022-12-07T16:02:36;1.23;;;0.82;;
52440;SDS011;39611;46.062;8.950;2022-12-07T16:05:05;3.60;;;1.50;;
52440;SDS011;39611;46.062;8.950;2022-12-07T16:07:32;4.22;;;1.60;;
52440;SDS011;39611;46.062;8.950;2022-12-07T16:09:59;7.53;;;2.05;;
52440;SDS011;39611;46.062;8.950;2022-12-07T16:12:25;3.80;;;0.98;;
52440;SDS011;39611;46.062;8.950;2022-12-07T16:14:52;2.30;;;1.48;;
52440;SDS011;39611;46.062;8.950;2022-12-07T16:17:18;3.53;;;1.60;;
52440;SDS011;39611;46.062;8.950;2022-12-07T16:19:45;3.65;;;1.45;;
52440;SDS011;39611;46.062;8.950;2022-12-07T16:22:11;2.88;;;1.38;;
52440;SDS011;39611;46.062;8.950;2022-12-07T16:24:38;3.53;;;1.30;;
52440;SDS011;39611;46.062;8.950;2022-12-07T16:27:05;1.95;;;0.90;;
52440;SDS011;39611;46.062;8.950;2022-12-07T16:29:31;3.15;;;1.20;;
52440;SDS011;39611;46.062;8.950;2022-12-07T16:32:00;4.82;;;1.35;;
52440;SDS011;39611;46.062;8.950;2022-12-07T16:34:29;2.78;;;1.55;;
52440;SDS011;39611;46.062;8.950;2022-12-07T16:36:59;1.47;;;0.80;;
52440;SDS011;39611;46.062;8.950;2022-12-07T16:39:30;2.05;;;1.02;;
52440;SDS011;39611;46.062;8.950;2022-12-07T16:41:57;1.40;;;0.82;;
52440;SDS011;39611;46.062;8.950;2022-12-07T16:44:23;4.78;;;1.20;;
52440;SDS011;39611;46.062;8.950;2022-12-07T16:46:50;5.95;;;1.55;;
52440;SDS011;39611;46.062;8.950;2022-12-07T16:49:17;215.30;;;64.82;;
52440;SDS011;39611;46.062;8.950;2022-12-07T16:51:44;207.93;;;67.75;;
52440;SDS011;39611;46.062;8.950;2022-12-07T16:54:11;109.85;;;34.03;;
52440;SDS011;39611;46.062;8.950;2022-12-07T16:56:38;40.25;;;14.25;;
52440;SDS011;39611;46.062;8.950;2022-12-07T16:59:05;9.68;;;2.55;;
52440;SDS011;39611;46.062;8.950;2022-12-07T17:01:31;12.73;;;2.65;;
52440;SDS011;39611;46.062;8.950;2022-12-07T17:03:58;18.45;;;7.13;;
52440;SDS011;39611;46.062;8.950;2022-12-07T17:06:26;7.72;;;2.60;;
52440;SDS011;39611;46.062;8.950;2022-12-07T17:08:54;3.30;;;1.70;;
52440;SDS011;39611;46.062;8.950;2022-12-07T17:11:22;5.97;;;2.13;;
52440;SDS011;39611;46.062;8.950;2022-12-07T17:13:51;8.40;;;2.35;;
52440;SDS011;39611;46.062;8.950;2022-12-07T17:16:36;8.00;;;2.88;;
52440;SDS011;39611;46.062;8.950;2022-12-07T17:19:07;6.65;;;2.25;;
52440;SDS011;39611;46.062;8.950;2022-12-07T17:21:35;5.20;;;2.13;;
52440;SDS011;39611;46.062;8.950;2022-12-07T17:24:02;5.30;;;2.00;;
52440;SDS011;39611;46.062;8.950;2022-12-07T17:26:31;5.18;;;2.03;;
52440;SDS011;39611;46.062;8.950;2022-12-07T17:29:01;60.67;;;17.85;;
52440;SDS011;39611;46.062;8.950;2022-12-07T17:31:32;66.70;;;19.25;;
52440;SDS011;39611;46.062;8.950;2022-12-07T17:33:59;79.20;;;21.40;;
52440;SDS011;39611;46.062;8.950;2022-12-07T17:36:26;36.17;;;12.52;;
52440;SDS011;39611;46.062;8.950;2022-12-07T17:38:55;30.65;;;10.50;;
52440;SDS011;39611;46.062;8.950;2022-12-07T17:41:26;14.23;;;6.43;;
52440;SDS011;39611;46.062;8.950;2022-12-07T17:44:13;7.70;;;4.00;;
52440;SDS011;39611;46.062;8.950;2022-12-07T17:46:42;5.43;;;2.78;;
52440;SDS011;39611;46.062;8.950;2022-12-07T17:49:09;10.13;;;3.58;;
52440;SDS011;39611;46.062;8.950;2022-12-07T17:51:35;10.38;;;4.60;;
52440;SDS011;39611;46.062;8.950;2022-12-07T17:54:21;58.78;;;17.50;;
52440;SDS011;39611;46.062;8.950;2022-12-07T17:56:47;14.00;;;5.18;;
52440;SDS011;39611;46.062;8.950;2022-12-07T17:59:14;7.28;;;2.33;;
52440;SDS011;39611;46.062;8.950;2022-12-07T18:01:41;5.30;;;2.20;;
52440;SDS011;39611;46.062;8.950;2022-12-07T18:04:08;12.63;;;2.22;;
52440;SDS011;39611;46.062;8.950;2022-12-07T18:06:49;13.82;;;2.88;;
52440;SDS011;39611;46.062;8.950;2022-12-07T18:09:17;3.45;;;2.20;;
52440;SDS011;39611;46.062;8.950;2022-12-07T18:11:54;3.55;;;1.60;;
52440;SDS011;39611;46.062;8.950;2022-12-07T18:14:20;5.75;;;3.20;;
52440;SDS011;39611;46.062;8.950;2022-12-07T18:16:47;8.80;;;3.40;;
52440;SDS011;39611;46.062;8.950;2022-12-07T18:19:15;10.25;;;3.42;;
52440;SDS011;39611;46.062;8.950;2022-12-07T18:21:42;9.80;;;3.97;;
52440;SDS011;39611;46.062;8.950;2022-12-07T18:24:10;6.75;;;2.83;;
52440;SDS011;39611;46.062;8.950;2022-12-07T18:26:38;9.00;;;2.83;;
52440;SDS011;39611;46.062;8.950;2022-12-07T18:29:05;6.25;;;2.60;;
52440;SDS011;39611;46.062;8.950;2022-12-07T18:31:32;3.85;;;2.10;;
52440;SDS011;39611;46.062;8.950;2022-12-07T18:34:01;4.60;;;2.20;;
52440;SDS011;39611;46.062;8.950;2022-12-07T18:36:30;3.78;;;1.73;;
52440;SDS011;39611;46.062;8.950;2022-12-07T18:38:57;6.07;;;1.70;;
52440;SDS011;39611;46.062;8.950;2022-12-07T18:41:23;3.83;;;1.70;;
52440;SDS011;39611;46.062;8.950;2022-12-07T18:43:50;4.47;;;1.55;;
52440;SDS011;39611;46.062;8.950;2022-12-07T18:46:17;6.43;;;2.25;;
52440;SDS011;39611;46.062;8.950;2022-12-07T18:48:45;4.13;;;1.95;;
52440;SDS011;39611;46.062;8.950;2022-12-07T18:51:13;3.15;;;1.35;;
52440;SDS011;39611;46.062;8.950;2022-12-07T18:53:41;6.82;;;1.85;;
52440;SDS011;39611;46.062;8.950;2022-12-07T18:56:18;3.60;;;1.60;;
52440;SDS011;39611;46.062;8.950;2022-12-07T18:58:50;2.28;;;1.10;;
52440;SDS011;39611;46.062;8.950;2022-12-07T19:01:37;4.63;;;1.75;;
52440;SDS011;39611;46.062;8.950;2022-12-07T19:04:04;5.20;;;1.75;;
52440;SDS011;39611;46.062;8.950;2022-12-07T19:06:31;5.53;;;2.83;;
52440;SDS011;39611;46.062;8.950;2022-12-07T19:08:58;8.73;;;3.42;;
52440;SDS011;39611;46.062;8.950;2022-12-07T19:11:27;8.43;;;2.88;;
52440;SDS011;39611;46.062;8.950;2022-12-07T19:14:33;6.22;;;1.73;;
52440;SDS011;39611;46.062;8.950;2022-12-07T19:17:05;4.70;;;1.92;;
52440;SDS011;39611;46.062;8.950;2022-12-07T19:19:38;4.55;;;1.33;;
52440;SDS011;39611;46.062;8.950;2022-12-07T19:22:09;2.83;;;1.60;;
52440;SDS011;39611;46.062;8.950;2022-12-07T19:24:37;3.25;;;1.63;;
52440;SDS011;39611;46.062;8.950;2022-12-07T19:27:05;13.32;;;4.32;;
52440;SDS011;39611;46.062;8.950;2022-12-07T19:29:33;27.50;;;9.18;;
52440;SDS011;39611;46.062;8.950;2022-12-07T19:32:00;38.00;;;13.95;;
52440;SDS011;39611;46.062;8.950;2022-12-07T19:34:29;37.92;;;15.02;;
52440;SDS011;39611;46.062;8.950;2022-12-07T19:36:56;35.95;;;13.65;;
52440;SDS011;39611;46.062;8.950;2022-12-07T19:39:23;22.50;;;9.45;;
52440;SDS011;39611;46.062;8.950;2022-12-07T19:41:50;6.10;;;2.47;;
52440;SDS011;39611;46.062;8.950;2022-12-07T19:46:45;23.65;;;8.15;;
52440;SDS011;39611;46.062;8.950;2022-12-07T19:49:15;17.10;;;7.05;;
52440;SDS011;39611;46.062;8.950;2022-12-07T19:51:44;14.98;;;5.10;;
52440;SDS011;39611;46.062;8.950;2022-12-07T19:54:13;20.23;;;5.53;;
52440;SDS011;39611;46.062;8.950;2022-12-07T19:56:41;10.27;;;3.53;;
52440;SDS011;39611;46.062;8.950;2022-12-07T19:59:11;9.40;;;4.07;;
52440;SDS011;39611;46.062;8.950;2022-12-07T20:01:48;9.63;;;4.20;;
52440;SDS011;39611;46.062;8.950;2022-12-07T20:04:36;5.10;;;2.38;;
52440;SDS011;39611;46.062;8.950;2022-12-07T20:07:03;8.23;;;2.85;;
52440;SDS011;39611;46.062;8.950;2022-12-07T20:09:29;5.65;;;2.58;;
52440;SDS011;39611;46.062;8.950;2022-12-07T20:11:56;6.55;;;2.47;;
52440;SDS011;39611;46.062;8.950;2022-12-07T20:14:41;8.05;;;2.17;;
52440;SDS011;39611;46.062;8.950;2022-12-07T20:17:08;4.65;;;1.67;;
52440;SDS011;39611;46.062;8.950;2022-12-07T20:19:35;7.53;;;1.58;;
52440;SDS011;39611;46.062;8.950;2022-12-07T20:22:02;2.55;;;1.13;;
52440;SDS011;39611;46.062;8.950;2022-12-07T20:24:29;3.75;;;1.60;;
52440;SDS011;39611;46.062;8.950;2022-12-07T20:26:59;12.75;;;2.65;;
52440;SDS011;39611;46.062;8.950;2022-12-07T20:29:29;8.10;;;3.17;;
52440;SDS011;39611;46.062;8.950;2022-12-07T20:31:55;7.45;;;3.20;;
52440;SDS011;39611;46.062;8.950;2022-12-07T20:34:23;6.78;;;2.50;;
52440;SDS011;39611;46.062;8.950;2022-12-07T20:36:54;4.97;;;2.45;;
52440;SDS011;39611;46.062;8.950;2022-12-07T20:39:23;10.50;;;2.22;;
52440;SDS011;39611;46.062;8.950;2022-12-07T20:45:15;7.03;;;1.92;;
52440;SDS011;39611;46.062;8.950;2022-12-07T20:47:56;2.60;;;1.38;;
52440;SDS011;39611;46.062;8.950;2022-12-07T20:50:28;6.90;;;1.93;;
52440;SDS011;39611;46.062;8.950;2022-12-07T20:53:24;1.40;;;0.98;;
52440;SDS011;39611;46.062;8.950;2022-12-07T20:56:37;5.07;;;1.83;;
52440;SDS011;39611;46.062;8.950;2022-12-07T20:59:06;4.55;;;2.17;;
52440;SDS011;39611;46.062;8.950;2022-12-07T21:01:37;8.98;;;3.15;;
52440;SDS011;39611;46.062;8.950;2022-12-07T21:04:05;7.05;;;3.00;;
52440;SDS011;39611;46.062;8.950;2022-12-07T21:06:35;6.82;;;2.85;;
52440;SDS011;39611;46.062;8.950;2022-12-07T21:09:02;2.40;;;1.63;;
52440;SDS011;39611;46.062;8.950;2022-12-07T21:11:29;9.35;;;1.50;;
52440;SDS011;39611;46.062;8.950;2022-12-07T21:13:57;3.35;;;1.52;;
52440;SDS011;39611;46.062;8.950;2022-12-07T21:16:28;3.40;;;1.20;;
52440;SDS011;39611;46.062;8.950;2022-12-07T21:18:57;3.35;;;1.88;;
52440;SDS011;39611;46.062;8.950;2022-12-07T21:21:28;1.25;;;0.85;;
52440;SDS011;39611;46.062;8.950;2022-12-07T21:23:56;1.85;;;1.08;;
52440;SDS011;39611;46.062;8.950;2022-12-07T21:26:28;1.60;;;0.93;;
52440;SDS011;39611;46.062;8.950;2022-12-07T21:28:55;8.30;;;2.50;;
52440;SDS011;39611;46.062;8.950;2022-12-07T21:31:24;4.25;;;1.08;;
52440;SDS011;39611;46.062;8.950;2022-12-07T21:33:54;3.45;;;1.15;;
52440;SDS011;39611;46.062;8.950;2022-12-07T21:36:21;4.97;;;1.92;;
52440;SDS011;39611;46.062;8.950;2022-12-07T21:38:49;9.48;;;2.28;;
52440;SDS011;39611;46.062;8.950;2022-12-07T21:41:17;10.40;;;3.60;;
52440;SDS011;39611;46.062;8.950;2022-12-07T21:43:45;7.35;;;1.50;;